sensor_id;sensor_type;location;lat;lon;timestamp;temperature;humidity
10336;DHT22;5213;53.548;9.930;2023-12-14T00:01:43;4.20;99.90
10336;DHT22;5213;53.548;9.930;2023-12-14T00:04:11;4.20;99.90
10336;DHT22;5213;53.548;9.930;2023-12-14T00:06:37;4.00;99.90
10336;DHT22;5213;53.548;9.930;2023-12-14T00:09:02;4.20;99.90
10336;DHT22;5213;53.548;9.930;2023-12-14T00:11:28;4.20;99.90
10336;DHT22;5213;53.548;9.930;2023-12-14T00:13:54;4.20;99.90
10336;DHT22;5213;53.548;9.930;2023-12-14T00:16:19;4.30;99.90
10336;DHT22;5213;53.548;9.930;2023-12-14T00:18:45;4.30;99.90
10336;DHT22;5213;53.548;9.930;2023-12-14T00:21:10;4.10;99.90
10336;DHT22;5213;53.548;9.930;2023-12-14T00:23:36;4.20;99.90
10336;DHT22;5213;53.548;9.930;2023-12-14T00:26:02;4.10;99.90
10336;DHT22;5213;53.548;9.930;2023-12-14T00:28:27;4.50;99.90
10336;DHT22;5213;53.548;9.930;2023-12-14T00:30:53;4.00;99.90
10336;DHT22;5213;53.548;9.930;2023-12-14T00:33:18;4.30;99.90
10336;DHT22;5213;53.548;9.930;2023-12-14T00:35:44;4.00;1.00
10336;DHT22;5213;53.548;9.930;2023-12-14T00:38:10;4.00;1.00
10336;DHT22;5213;53.548;9.930;2023-12-14T00:40:35;4.00;1.00
10336;DHT22;5213;53.548;9.930;2023-12-14T00:43:01;4.10;1.00
10336;DHT22;5213;53.548;9.930;2023-12-14T00:45:26;4.20;1.00
10336;DHT22;5213;53.548;9.930;2023-12-14T00:47:52;4.10;1.00
10336;DHT22;5213;53.548;9.930;2023-12-14T00:50:18;4.10;1.00
10336;DHT22;5213;53.548;9.930;2023-12-14T00:52:43;4.20;1.00
10336;DHT22;5213;53.548;9.930;2023-12-14T00:55:09;4.30;1.00
10336;DHT22;5213;53.548;9.930;2023-12-14T00:57:35;4.60;1.00
10336;DHT22;5213;53.548;9.930;2023-12-14T01:00:01;4.20;1.00
10336;DHT22;5213;53.548;9.930;2023-12-14T01:02:27;4.40;1.00
10336;DHT22;5213;53.548;9.930;2023-12-14T01:04:53;4.30;1.00
10336;DHT22;5213;53.548;9.930;2023-12-14T01:07:19;4.50;1.00
10336;DHT22;5213;53.548;9.930;2023-12-14T01:09:45;4.50;1.00
10336;DHT22;5213;53.548;9.930;2023-12-14T01:12:11;4.50;1.00
10336;DHT22;5213;53.548;9.930;2023-12-14T01:14:36;4.80;1.00
10336;DHT22;5213;53.548;9.930;2023-12-14T01:17:02;4.90;1.00
10336;DHT22;5213;53.548;9.930;2023-12-14T01:19:28;4.50;1.00
10336;DHT22;5213;53.548;9.930;2023-12-14T01:21:53;4.90;1.00
10336;DHT22;5213;53.548;9.930;2023-12-14T01:24:20;4.40;1.00
10336;DHT22;5213;53.548;9.930;2023-12-14T01:26:46;4.30;1.00
10336;DHT22;5213;53.548;9.930;2023-12-14T01:29:11;4.50;1.00
10336;DHT22;5213;53.548;9.930;2023-12-14T01:31:37;4.40;1.00
10336;DHT22;5213;53.548;9.930;2023-12-14T01:34:03;4.60;1.00
10336;DHT22;5213;53.548;9.930;2023-12-14T01:36:28;4.30;1.00
10336;DHT22;5213;53.548;9.930;2023-12-14T01:38:54;4.60;1.00
10336;DHT22;5213;53.548;9.930;2023-12-14T01:41:19;4.40;1.00
10336;DHT22;5213;53.548;9.930;2023-12-14T01:43:45;4.50;1.00
10336;DHT22;5213;53.548;9.930;2023-12-14T01:46:11;4.30;1.00
10336;DHT22;5213;53.548;9.930;2023-12-14T01:48:36;4.80;1.00
10336;DHT22;5213;53.548;9.930;2023-12-14T01:51:03;4.30;1.00
10336;DHT22;5213;53.548;9.930;2023-12-14T01:53:28;4.40;1.00
10336;DHT22;5213;53.548;9.930;2023-12-14T01:55:54;4.50;1.00
10336;DHT22;5213;53.548;9.930;2023-12-14T01:58:20;4.40;1.00
10336;DHT22;5213;53.548;9.930;2023-12-14T02:03:33;4.50;1.00
10336;DHT22;5213;53.548;9.930;2023-12-14T02:05:58;4.50;1.00
10336;DHT22;5213;53.548;9.930;2023-12-14T02:08:24;4.50;1.00
10336;DHT22;5213;53.548;9.930;2023-12-14T02:10:50;4.40;1.00
10336;DHT22;5213;53.548;9.930;2023-12-14T02:13:16;4.40;1.00
10336;DHT22;5213;53.548;9.930;2023-12-14T02:15:42;4.40;1.00
10336;DHT22;5213;53.548;9.930;2023-12-14T02:18:08;4.40;1.00
10336;DHT22;5213;53.548;9.930;2023-12-14T02:20:33;4.40;1.00
10336;DHT22;5213;53.548;9.930;2023-12-14T02:22:59;4.50;1.00
10336;DHT22;5213;53.548;9.930;2023-12-14T02:25:24;4.80;1.00
10336;DHT22;5213;53.548;9.930;2023-12-14T02:27:51;4.40;1.00
10336;DHT22;5213;53.548;9.930;2023-12-14T02:30:17;4.40;1.00
10336;DHT22;5213;53.548;9.930;2023-12-14T02:32:43;5.00;1.00
10336;DHT22;5213;53.548;9.930;2023-12-14T02:35:09;4.50;1.00
10336;DHT22;5213;53.548;9.930;2023-12-14T02:37:35;4.40;1.00
10336;DHT22;5213;53.548;9.930;2023-12-14T02:40:06;5.30;1.00
10336;DHT22;5213;53.548;9.930;2023-12-14T02:42:32;4.50;1.00
10336;DHT22;5213;53.548;9.930;2023-12-14T02:44:58;4.50;1.00
10336;DHT22;5213;53.548;9.930;2023-12-14T02:47:24;4.40;1.00
10336;DHT22;5213;53.548;9.930;2023-12-14T02:49:49;4.50;1.00
10336;DHT22;5213;53.548;9.930;2023-12-14T02:52:15;4.50;1.00
10336;DHT22;5213;53.548;9.930;2023-12-14T02:54:41;4.50;1.00
10336;DHT22;5213;53.548;9.930;2023-12-14T02:57:06;4.50;1.00
10336;DHT22;5213;53.548;9.930;2023-12-14T02:59:32;4.40;1.00
10336;DHT22;5213;53.548;9.930;2023-12-14T03:01:58;4.50;1.00
10336;DHT22;5213;53.548;9.930;2023-12-14T03:04:23;4.80;1.00
10336;DHT22;5213;53.548;9.930;2023-12-14T03:06:49;5.20;1.00
10336;DHT22;5213;53.548;9.930;2023-12-14T03:09:14;4.40;1.00
10336;DHT22;5213;53.548;9.930;2023-12-14T03:11:40;4.30;1.00
10336;DHT22;5213;53.548;9.930;2023-12-14T03:14:06;4.50;1.00
10336;DHT22;5213;53.548;9.930;2023-12-14T03:16:31;4.40;1.00
10336;DHT22;5213;53.548;9.930;2023-12-14T03:18:57;4.40;1.00
10336;DHT22;5213;53.548;9.930;2023-12-14T03:21:23;4.90;1.00
10336;DHT22;5213;53.548;9.930;2023-12-14T03:23:49;4.40;1.00
10336;DHT22;5213;53.548;9.930;2023-12-14T03:26:15;4.60;1.00
10336;DHT22;5213;53.548;9.930;2023-12-14T03:28:41;4.90;1.00
10336;DHT22;5213;53.548;9.930;2023-12-14T03:31:07;4.40;1.00
10336;DHT22;5213;53.548;9.930;2023-12-14T03:33:32;4.50;1.00
10336;DHT22;5213;53.548;9.930;2023-12-14T03:35:58;4.40;1.00
10336;DHT22;5213;53.548;9.930;2023-12-14T03:38:24;4.30;1.00
10336;DHT22;5213;53.548;9.930;2023-12-14T03:40:50;4.40;1.00
10336;DHT22;5213;53.548;9.930;2023-12-14T03:43:15;4.50;1.00
10336;DHT22;5213;53.548;9.930;2023-12-14T03:45:41;4.40;1.00
10336;DHT22;5213;53.548;9.930;2023-12-14T03:48:07;4.40;1.00
10336;DHT22;5213;53.548;9.930;2023-12-14T03:50:32;4.40;1.00
10336;DHT22;5213;53.548;9.930;2023-12-14T03:52:58;4.40;1.00
10336;DHT22;5213;53.548;9.930;2023-12-14T03:55:24;4.50;1.00
10336;DHT22;5213;53.548;9.930;2023-12-14T03:57:50;4.40;1.00
10336;DHT22;5213;53.548;9.930;2023-12-14T04:00:16;4.40;1.00
10336;DHT22;5213;53.548;9.930;2023-12-14T04:02:42;4.40;1.00
10336;DHT22;5213;53.548;9.930;2023-12-14T04:05:08;4.30;1.00
10336;DHT22;5213;53.548;9.930;2023-12-14T04:07:37;4.40;1.00
10336;DHT22;5213;53.548;9.930;2023-12-14T04:10:09;4.60;1.00
10336;DHT22;5213;53.548;9.930;2023-12-14T04:12:35;4.50;1.00
10336;DHT22;5213;53.548;9.930;2023-12-14T04:15:01;4.70;1.00
10336;DHT22;5213;53.548;9.930;2023-12-14T04:17:27;4.80;1.00
10336;DHT22;5213;53.548;9.930;2023-12-14T04:19:53;4.30;1.00
10336;DHT22;5213;53.548;9.930;2023-12-14T04:22:18;4.30;1.00
10336;DHT22;5213;53.548;9.930;2023-12-14T04:24:44;4.00;1.00
10336;DHT22;5213;53.548;9.930;2023-12-14T04:27:10;4.30;1.00
10336;DHT22;5213;53.548;9.930;2023-12-14T04:29:35;4.50;1.00
10336;DHT22;5213;53.548;9.930;2023-12-14T04:32:01;4.90;1.00
10336;DHT22;5213;53.548;9.930;2023-12-14T04:34:26;4.40;1.00
10336;DHT22;5213;53.548;9.930;2023-12-14T04:36:53;4.40;1.00
10336;DHT22;5213;53.548;9.930;2023-12-14T04:39:23;4.40;1.00
10336;DHT22;5213;53.548;9.930;2023-12-14T04:41:50;4.40;1.00
10336;DHT22;5213;53.548;9.930;2023-12-14T04:44:15;4.20;1.00
10336;DHT22;5213;53.548;9.930;2023-12-14T04:46:41;4.50;1.00
10336;DHT22;5213;53.548;9.930;2023-12-14T04:49:06;4.50;1.00
10336;DHT22;5213;53.548;9.930;2023-12-14T04:51:32;4.40;1.00
10336;DHT22;5213;53.548;9.930;2023-12-14T04:53:58;4.40;1.00
10336;DHT22;5213;53.548;9.930;2023-12-14T04:56:23;4.40;1.00
10336;DHT22;5213;53.548;9.930;2023-12-14T04:58:49;4.40;1.00
10336;DHT22;5213;53.548;9.930;2023-12-14T05:01:14;4.50;1.00
10336;DHT22;5213;53.548;9.930;2023-12-14T05:03:40;4.40;1.00
10336;DHT22;5213;53.548;9.930;2023-12-14T05:06:06;4.80;1.00
10336;DHT22;5213;53.548;9.930;2023-12-14T05:08:32;4.60;1.00
10336;DHT22;5213;53.548;9.930;2023-12-14T05:10:58;4.40;1.00
10336;DHT22;5213;53.548;9.930;2023-12-14T05:13:24;4.40;1.00
10336;DHT22;5213;53.548;9.930;2023-12-14T05:15:51;4.70;1.00
10336;DHT22;5213;53.548;9.930;2023-12-14T05:18:17;4.40;1.00
10336;DHT22;5213;53.548;9.930;2023-12-14T05:20:42;4.70;1.00
10336;DHT22;5213;53.548;9.930;2023-12-14T05:23:08;4.40;1.00
10336;DHT22;5213;53.548;9.930;2023-12-14T05:25:34;4.30;1.00
10336;DHT22;5213;53.548;9.930;2023-12-14T05:27:59;4.50;1.00
10336;DHT22;5213;53.548;9.930;2023-12-14T05:30:25;4.60;1.00
10336;DHT22;5213;53.548;9.930;2023-12-14T05:32:51;4.40;1.00
10336;DHT22;5213;53.548;9.930;2023-12-14T05:35:16;4.40;1.00
10336;DHT22;5213;53.548;9.930;2023-12-14T05:37:42;4.50;1.00
10336;DHT22;5213;53.548;9.930;2023-12-14T05:40:09;4.20;1.00
10336;DHT22;5213;53.548;9.930;2023-12-14T05:42:35;4.40;1.00
10336;DHT22;5213;53.548;9.930;2023-12-14T05:45:00;4.30;1.00
10336;DHT22;5213;53.548;9.930;2023-12-14T05:47:26;4.30;1.00
10336;DHT22;5213;53.548;9.930;2023-12-14T05:49:52;4.30;1.00
10336;DHT22;5213;53.548;9.930;2023-12-14T05:52:18;4.30;1.00
10336;DHT22;5213;53.548;9.930;2023-12-14T05:54:44;4.30;1.00
10336;DHT22;5213;53.548;9.930;2023-12-14T05:57:09;4.40;1.00
10336;DHT22;5213;53.548;9.930;2023-12-14T05:59:38;4.40;1.00
10336;DHT22;5213;53.548;9.930;2023-12-14T06:02:04;4.40;1.00
10336;DHT22;5213;53.548;9.930;2023-12-14T06:04:30;4.40;1.00
10336;DHT22;5213;53.548;9.930;2023-12-14T06:06:56;4.30;1.00
10336;DHT22;5213;53.548;9.930;2023-12-14T06:09:22;4.40;1.00
10336;DHT22;5213;53.548;9.930;2023-12-14T06:11:51;4.40;1.00
10336;DHT22;5213;53.548;9.930;2023-12-14T06:14:17;4.40;1.00
10336;DHT22;5213;53.548;9.930;2023-12-14T06:16:43;4.40;1.00
10336;DHT22;5213;53.548;9.930;2023-12-14T06:19:08;4.30;1.00
10336;DHT22;5213;53.548;9.930;2023-12-14T06:21:34;4.40;1.00
10336;DHT22;5213;53.548;9.930;2023-12-14T06:23:59;4.20;1.00
10336;DHT22;5213;53.548;9.930;2023-12-14T06:26:26;4.30;1.00
10336;DHT22;5213;53.548;9.930;2023-12-14T06:28:51;4.20;1.00
10336;DHT22;5213;53.548;9.930;2023-12-14T06:31:18;4.40;1.00
10336;DHT22;5213;53.548;9.930;2023-12-14T06:33:49;4.90;1.00
10336;DHT22;5213;53.548;9.930;2023-12-14T06:36:18;4.40;1.00
10336;DHT22;5213;53.548;9.930;2023-12-14T06:38:43;4.20;1.00
10336;DHT22;5213;53.548;9.930;2023-12-14T06:41:21;4.20;1.00
10336;DHT22;5213;53.548;9.930;2023-12-14T06:43:47;3.80;1.00
10336;DHT22;5213;53.548;9.930;2023-12-14T06:46:12;4.20;1.00
10336;DHT22;5213;53.548;9.930;2023-12-14T06:48:38;4.20;1.00
10336;DHT22;5213;53.548;9.930;2023-12-14T06:51:04;4.10;1.00
10336;DHT22;5213;53.548;9.930;2023-12-14T06:53:30;4.20;1.00
10336;DHT22;5213;53.548;9.930;2023-12-14T06:55:55;4.20;1.00
10336;DHT22;5213;53.548;9.930;2023-12-14T06:58:21;4.20;1.00
10336;DHT22;5213;53.548;9.930;2023-12-14T07:00:47;4.30;1.00
10336;DHT22;5213;53.548;9.930;2023-12-14T07:03:13;4.30;1.00
10336;DHT22;5213;53.548;9.930;2023-12-14T07:05:39;4.20;1.00
10336;DHT22;5213;53.548;9.930;2023-12-14T07:08:04;4.30;1.00
10336;DHT22;5213;53.548;9.930;2023-12-14T07:10:30;4.30;1.00
10336;DHT22;5213;53.548;9.930;2023-12-14T07:12:56;4.40;1.00
10336;DHT22;5213;53.548;9.930;2023-12-14T07:15:21;4.20;1.00
10336;DHT22;5213;53.548;9.930;2023-12-14T07:17:47;4.30;1.00
10336;DHT22;5213;53.548;9.930;2023-12-14T07:20:13;4.30;1.00
10336;DHT22;5213;53.548;9.930;2023-12-14T07:22:38;4.20;1.00
10336;DHT22;5213;53.548;9.930;2023-12-14T07:25:04;4.20;1.00
10336;DHT22;5213;53.548;9.930;2023-12-14T07:27:30;4.20;1.00
10336;DHT22;5213;53.548;9.930;2023-12-14T07:29:55;4.50;1.00
10336;DHT22;5213;53.548;9.930;2023-12-14T07:32:21;4.20;1.00
10336;DHT22;5213;53.548;9.930;2023-12-14T07:34:47;4.00;1.00
10336;DHT22;5213;53.548;9.930;2023-12-14T07:37:13;3.90;1.00
10336;DHT22;5213;53.548;9.930;2023-12-14T07:39:38;4.30;1.00
10336;DHT22;5213;53.548;9.930;2023-12-14T07:42:04;4.10;1.00
10336;DHT22;5213;53.548;9.930;2023-12-14T07:44:30;4.10;1.00
10336;DHT22;5213;53.548;9.930;2023-12-14T07:46:58;4.10;1.00
10336;DHT22;5213;53.548;9.930;2023-12-14T07:49:24;4.00;1.00
10336;DHT22;5213;53.548;9.930;2023-12-14T07:51:50;4.10;1.00
10336;DHT22;5213;53.548;9.930;2023-12-14T07:54:15;4.00;1.00
10336;DHT22;5213;53.548;9.930;2023-12-14T07:56:41;4.00;1.00
10336;DHT22;5213;53.548;9.930;2023-12-14T07:59:07;4.00;1.00
10336;DHT22;5213;53.548;9.930;2023-12-14T08:01:36;4.00;1.00
10336;DHT22;5213;53.548;9.930;2023-12-14T08:04:02;4.10;1.00
10336;DHT22;5213;53.548;9.930;2023-12-14T08:06:29;4.10;1.00
10336;DHT22;5213;53.548;9.930;2023-12-14T08:08:55;4.10;1.00
10336;DHT22;5213;53.548;9.930;2023-12-14T08:11:23;4.20;1.00
10336;DHT22;5213;53.548;9.930;2023-12-14T08:13:49;3.90;1.00
10336;DHT22;5213;53.548;9.930;2023-12-14T08:16:15;4.10;1.00
10336;DHT22;5213;53.548;9.930;2023-12-14T08:18:42;4.40;1.00
10336;DHT22;5213;53.548;9.930;2023-12-14T08:21:10;4.20;1.00
10336;DHT22;5213;53.548;9.930;2023-12-14T08:23:35;4.30;1.00
10336;DHT22;5213;53.548;9.930;2023-12-14T08:26:01;4.20;1.00
10336;DHT22;5213;53.548;9.930;2023-12-14T08:28:27;4.10;1.00
10336;DHT22;5213;53.548;9.930;2023-12-14T08:30:52;4.20;1.00
10336;DHT22;5213;53.548;9.930;2023-12-14T08:33:18;4.20;1.00
10336;DHT22;5213;53.548;9.930;2023-12-14T08:35:44;4.30;1.00
10336;DHT22;5213;53.548;9.930;2023-12-14T08:38:10;4.20;1.00
10336;DHT22;5213;53.548;9.930;2023-12-14T08:40:36;4.30;1.00
10336;DHT22;5213;53.548;9.930;2023-12-14T08:43:02;4.20;1.00
10336;DHT22;5213;53.548;9.930;2023-12-14T08:45:28;4.20;1.00
10336;DHT22;5213;53.548;9.930;2023-12-14T08:47:57;4.20;1.00
10336;DHT22;5213;53.548;9.930;2023-12-14T08:50:25;4.30;1.00
10336;DHT22;5213;53.548;9.930;2023-12-14T08:52:54;4.20;1.00
10336;DHT22;5213;53.548;9.930;2023-12-14T08:55:19;4.50;1.00
10336;DHT22;5213;53.548;9.930;2023-12-14T08:57:45;4.30;1.00
10336;DHT22;5213;53.548;9.930;2023-12-14T09:00:11;4.60;1.00
10336;DHT22;5213;53.548;9.930;2023-12-14T09:02:37;4.30;1.00
10336;DHT22;5213;53.548;9.930;2023-12-14T09:05:03;4.20;1.00
10336;DHT22;5213;53.548;9.930;2023-12-14T09:07:30;4.20;1.00
10336;DHT22;5213;53.548;9.930;2023-12-14T09:09:55;4.20;1.00
10336;DHT22;5213;53.548;9.930;2023-12-14T09:12:21;4.20;1.00
10336;DHT22;5213;53.548;9.930;2023-12-14T09:14:47;4.10;1.00
10336;DHT22;5213;53.548;9.930;2023-12-14T09:17:13;4.40;1.00
10336;DHT22;5213;53.548;9.930;2023-12-14T09:19:38;4.10;1.00
10336;DHT22;5213;53.548;9.930;2023-12-14T09:22:04;4.50;1.00
10336;DHT22;5213;53.548;9.930;2023-12-14T09:24:30;4.50;1.00
10336;DHT22;5213;53.548;9.930;2023-12-14T09:26:55;4.60;1.00
10336;DHT22;5213;53.548;9.930;2023-12-14T09:29:21;4.50;1.00
10336;DHT22;5213;53.548;9.930;2023-12-14T09:31:47;4.30;1.00
10336;DHT22;5213;53.548;9.930;2023-12-14T09:34:13;4.90;1.00
10336;DHT22;5213;53.548;9.930;2023-12-14T09:36:39;4.40;1.00
10336;DHT22;5213;53.548;9.930;2023-12-14T09:39:05;4.20;1.00
10336;DHT22;5213;53.548;9.930;2023-12-14T09:41:31;4.30;1.00
10336;DHT22;5213;53.548;9.930;2023-12-14T09:43:56;4.40;1.00
10336;DHT22;5213;53.548;9.930;2023-12-14T09:46:23;4.50;1.00
10336;DHT22;5213;53.548;9.930;2023-12-14T09:48:50;4.50;1.00
10336;DHT22;5213;53.548;9.930;2023-12-14T09:51:16;4.60;1.00
10336;DHT22;5213;53.548;9.930;2023-12-14T09:53:42;4.40;1.00
10336;DHT22;5213;53.548;9.930;2023-12-14T09:56:08;4.40;1.00
10336;DHT22;5213;53.548;9.930;2023-12-14T09:58:34;4.50;1.00
10336;DHT22;5213;53.548;9.930;2023-12-14T10:01:00;4.50;1.00
10336;DHT22;5213;53.548;9.930;2023-12-14T10:03:30;4.40;1.00
10336;DHT22;5213;53.548;9.930;2023-12-14T10:05:58;4.20;1.00
10336;DHT22;5213;53.548;9.930;2023-12-14T10:08:25;4.40;1.00
10336;DHT22;5213;53.548;9.930;2023-12-14T10:10:52;4.20;1.00
10336;DHT22;5213;53.548;9.930;2023-12-14T10:13:37;4.60;1.00
10336;DHT22;5213;53.548;9.930;2023-12-14T10:16:04;4.70;1.00
10336;DHT22;5213;53.548;9.930;2023-12-14T10:18:32;4.70;1.00
10336;DHT22;5213;53.548;9.930;2023-12-14T10:20:59;4.40;1.00
10336;DHT22;5213;53.548;9.930;2023-12-14T10:23:27;4.40;1.00
10336;DHT22;5213;53.548;9.930;2023-12-14T10:25:53;4.50;1.00
10336;DHT22;5213;53.548;9.930;2023-12-14T10:28:19;4.60;1.00
10336;DHT22;5213;53.548;9.930;2023-12-14T10:30:44;4.50;1.00
10336;DHT22;5213;53.548;9.930;2023-12-14T10:33:10;4.60;1.00
10336;DHT22;5213;53.548;9.930;2023-12-14T10:35:36;4.60;1.00
10336;DHT22;5213;53.548;9.930;2023-12-14T10:38:03;4.30;1.00
10336;DHT22;5213;53.548;9.930;2023-12-14T10:40:31;4.60;1.00
10336;DHT22;5213;53.548;9.930;2023-12-14T10:42:59;4.90;1.00
10336;DHT22;5213;53.548;9.930;2023-12-14T10:45:29;4.60;1.00
10336;DHT22;5213;53.548;9.930;2023-12-14T10:47:59;4.60;1.00
10336;DHT22;5213;53.548;9.930;2023-12-14T10:50:29;5.40;1.00
10336;DHT22;5213;53.548;9.930;2023-12-14T10:52:59;4.70;1.00
10336;DHT22;5213;53.548;9.930;2023-12-14T10:55:40;4.70;1.00
10336;DHT22;5213;53.548;9.930;2023-12-14T10:58:09;4.90;1.00
10336;DHT22;5213;53.548;9.930;2023-12-14T11:00:36;4.80;1.00
10336;DHT22;5213;53.548;9.930;2023-12-14T11:03:04;4.40;1.00
10336;DHT22;5213;53.548;9.930;2023-12-14T11:05:33;4.80;1.00
10336;DHT22;5213;53.548;9.930;2023-12-14T11:08:04;4.80;1.00
10336;DHT22;5213;53.548;9.930;2023-12-14T11:10:42;4.80;1.00
10336;DHT22;5213;53.548;9.930;2023-12-14T11:13:13;4.90;1.00
10336;DHT22;5213;53.548;9.930;2023-12-14T11:15:48;4.80;1.00
10336;DHT22;5213;53.548;9.930;2023-12-14T11:18:20;4.60;1.00
10336;DHT22;5213;53.548;9.930;2023-12-14T11:23:26;4.60;1.00
10336;DHT22;5213;53.548;9.930;2023-12-14T11:25:54;4.80;1.00
10336;DHT22;5213;53.548;9.930;2023-12-14T11:28:20;5.10;1.00
10336;DHT22;5213;53.548;9.930;2023-12-14T11:30:46;4.90;1.00
10336;DHT22;5213;53.548;9.930;2023-12-14T11:33:12;4.60;1.00
10336;DHT22;5213;53.548;9.930;2023-12-14T11:35:38;4.50;1.00
10336;DHT22;5213;53.548;9.930;2023-12-14T11:38:04;4.70;1.00
10336;DHT22;5213;53.548;9.930;2023-12-14T11:40:36;4.70;1.00
10336;DHT22;5213;53.548;9.930;2023-12-14T11:43:03;4.80;1.00
10336;DHT22;5213;53.548;9.930;2023-12-14T11:45:37;4.90;1.00
10336;DHT22;5213;53.548;9.930;2023-12-14T11:48:04;4.90;1.00
10336;DHT22;5213;53.548;9.930;2023-12-14T11:50:32;4.80;1.00
10336;DHT22;5213;53.548;9.930;2023-12-14T11:53:01;4.80;1.00
10336;DHT22;5213;53.548;9.930;2023-12-14T11:55:31;4.80;1.00
10336;DHT22;5213;53.548;9.930;2023-12-14T11:57:58;4.70;1.00
10336;DHT22;5213;53.548;9.930;2023-12-14T12:00:25;4.80;1.00
10336;DHT22;5213;53.548;9.930;2023-12-14T12:02:51;4.90;1.00
10336;DHT22;5213;53.548;9.930;2023-12-14T12:05:17;4.70;99.90
10336;DHT22;5213;53.548;9.930;2023-12-14T12:07:47;4.70;1.00
10336;DHT22;5213;53.548;9.930;2023-12-14T12:10:12;4.70;1.00
10336;DHT22;5213;53.548;9.930;2023-12-14T12:12:38;4.70;99.90
10336;DHT22;5213;53.548;9.930;2023-12-14T12:15:04;4.70;1.00
10336;DHT22;5213;53.548;9.930;2023-12-14T12:17:30;4.90;1.00
10336;DHT22;5213;53.548;9.930;2023-12-14T12:20:05;4.80;99.90
10336;DHT22;5213;53.548;9.930;2023-12-14T12:22:31;4.70;99.90
10336;DHT22;5213;53.548;9.930;2023-12-14T12:24:56;4.80;99.90
10336;DHT22;5213;53.548;9.930;2023-12-14T12:27:23;5.00;99.90
10336;DHT22;5213;53.548;9.930;2023-12-14T12:29:49;4.50;99.90
10336;DHT22;5213;53.548;9.930;2023-12-14T12:32:18;4.70;99.90
10336;DHT22;5213;53.548;9.930;2023-12-14T12:34:44;4.70;99.90
10336;DHT22;5213;53.548;9.930;2023-12-14T12:37:10;4.80;99.90
10336;DHT22;5213;53.548;9.930;2023-12-14T12:39:35;4.80;99.90
10336;DHT22;5213;53.548;9.930;2023-12-14T12:42:01;4.70;99.90
10336;DHT22;5213;53.548;9.930;2023-12-14T12:44:27;4.80;99.90
10336;DHT22;5213;53.548;9.930;2023-12-14T12:46:53;4.60;99.90
10336;DHT22;5213;53.548;9.930;2023-12-14T12:49:24;4.50;99.90
10336;DHT22;5213;53.548;9.930;2023-12-14T12:51:49;4.60;99.90
10336;DHT22;5213;53.548;9.930;2023-12-14T12:54:15;4.90;99.90
10336;DHT22;5213;53.548;9.930;2023-12-14T12:56:40;4.60;99.90
10336;DHT22;5213;53.548;9.930;2023-12-14T12:59:08;4.50;99.90
10336;DHT22;5213;53.548;9.930;2023-12-14T13:01:34;4.70;1.00
10336;DHT22;5213;53.548;9.930;2023-12-14T13:04:00;4.80;99.90
10336;DHT22;5213;53.548;9.930;2023-12-14T13:06:26;4.90;1.00
10336;DHT22;5213;53.548;9.930;2023-12-14T13:08:52;4.70;1.00
10336;DHT22;5213;53.548;9.930;2023-12-14T13:11:18;4.70;99.90
10336;DHT22;5213;53.548;9.930;2023-12-14T13:13:44;4.60;99.90
10336;DHT22;5213;53.548;9.930;2023-12-14T13:16:12;4.70;1.00
10336;DHT22;5213;53.548;9.930;2023-12-14T13:18:42;4.70;1.00
10336;DHT22;5213;53.548;9.930;2023-12-14T13:21:08;4.60;1.00
10336;DHT22;5213;53.548;9.930;2023-12-14T13:23:34;4.70;1.00
10336;DHT22;5213;53.548;9.930;2023-12-14T13:25:59;5.20;99.90
10336;DHT22;5213;53.548;9.930;2023-12-14T13:28:25;4.80;99.90
10336;DHT22;5213;53.548;9.930;2023-12-14T13:30:50;4.70;1.00
10336;DHT22;5213;53.548;9.930;2023-12-14T13:33:16;4.50;1.00
10336;DHT22;5213;53.548;9.930;2023-12-14T13:35:42;4.60;1.00
10336;DHT22;5213;53.548;9.930;2023-12-14T13:38:08;4.50;1.00
10336;DHT22;5213;53.548;9.930;2023-12-14T13:40:33;4.50;1.00
10336;DHT22;5213;53.548;9.930;2023-12-14T13:42:59;4.70;1.00
10336;DHT22;5213;53.548;9.930;2023-12-14T13:45:29;4.60;1.00
10336;DHT22;5213;53.548;9.930;2023-12-14T13:47:55;4.60;1.00
10336;DHT22;5213;53.548;9.930;2023-12-14T13:50:21;4.90;1.00
10336;DHT22;5213;53.548;9.930;2023-12-14T13:52:47;4.50;1.00
10336;DHT22;5213;53.548;9.930;2023-12-14T13:55:12;4.50;1.00
10336;DHT22;5213;53.548;9.930;2023-12-14T13:57:38;4.90;1.00
10336;DHT22;5213;53.548;9.930;2023-12-14T14:00:04;4.70;1.00
10336;DHT22;5213;53.548;9.930;2023-12-14T14:02:30;4.60;1.00
10336;DHT22;5213;53.548;9.930;2023-12-14T14:04:55;4.60;1.00
10336;DHT22;5213;53.548;9.930;2023-12-14T14:07:21;4.70;1.00
10336;DHT22;5213;53.548;9.930;2023-12-14T14:09:47;4.50;1.00
10336;DHT22;5213;53.548;9.930;2023-12-14T14:12:14;4.40;1.00
10336;DHT22;5213;53.548;9.930;2023-12-14T14:14:39;4.50;1.00
10336;DHT22;5213;53.548;9.930;2023-12-14T14:17:05;4.50;1.00
10336;DHT22;5213;53.548;9.930;2023-12-14T14:19:32;4.40;1.00
10336;DHT22;5213;53.548;9.930;2023-12-14T14:21:58;4.30;1.00
10336;DHT22;5213;53.548;9.930;2023-12-14T14:24:23;4.10;1.00
10336;DHT22;5213;53.548;9.930;2023-12-14T14:26:49;4.40;1.00
10336;DHT22;5213;53.548;9.930;2023-12-14T14:29:15;4.40;1.00
10336;DHT22;5213;53.548;9.930;2023-12-14T14:31:40;4.30;1.00
10336;DHT22;5213;53.548;9.930;2023-12-14T14:34:06;4.80;1.00
10336;DHT22;5213;53.548;9.930;2023-12-14T14:36:31;4.10;1.00
10336;DHT22;5213;53.548;9.930;2023-12-14T14:38:57;4.30;1.00
10336;DHT22;5213;53.548;9.930;2023-12-14T14:41:22;4.20;1.00
10336;DHT22;5213;53.548;9.930;2023-12-14T14:43:48;4.20;1.00
10336;DHT22;5213;53.548;9.930;2023-12-14T14:46:14;4.30;1.00
10336;DHT22;5213;53.548;9.930;2023-12-14T14:48:39;3.70;1.00
10336;DHT22;5213;53.548;9.930;2023-12-14T14:51:05;4.30;1.00
10336;DHT22;5213;53.548;9.930;2023-12-14T14:53:31;4.30;1.00
10336;DHT22;5213;53.548;9.930;2023-12-14T14:55:57;4.10;1.00
10336;DHT22;5213;53.548;9.930;2023-12-14T14:58:23;4.20;1.00
10336;DHT22;5213;53.548;9.930;2023-12-14T15:00:48;4.10;1.00
10336;DHT22;5213;53.548;9.930;2023-12-14T15:03:14;4.10;1.00
10336;DHT22;5213;53.548;9.930;2023-12-14T15:05:40;4.20;1.00
10336;DHT22;5213;53.548;9.930;2023-12-14T15:08:06;4.10;1.00
10336;DHT22;5213;53.548;9.930;2023-12-14T15:10:35;4.10;1.00
10336;DHT22;5213;53.548;9.930;2023-12-14T15:13:01;4.20;1.00
10336;DHT22;5213;53.548;9.930;2023-12-14T15:15:26;4.10;1.00
10336;DHT22;5213;53.548;9.930;2023-12-14T15:17:52;4.10;1.00
10336;DHT22;5213;53.548;9.930;2023-12-14T15:20:18;4.10;1.00
10336;DHT22;5213;53.548;9.930;2023-12-14T15:22:43;4.00;1.00
10336;DHT22;5213;53.548;9.930;2023-12-14T15:25:09;4.00;1.00
10336;DHT22;5213;53.548;9.930;2023-12-14T15:27:34;4.50;1.00
10336;DHT22;5213;53.548;9.930;2023-12-14T15:30:01;4.00;1.00
10336;DHT22;5213;53.548;9.930;2023-12-14T15:32:26;4.00;1.00
10336;DHT22;5213;53.548;9.930;2023-12-14T15:34:52;3.90;1.00
10336;DHT22;5213;53.548;9.930;2023-12-14T15:37:17;4.00;1.00
10336;DHT22;5213;53.548;9.930;2023-12-14T15:39:43;4.10;1.00
10336;DHT22;5213;53.548;9.930;2023-12-14T15:42:15;3.80;1.00
10336;DHT22;5213;53.548;9.930;2023-12-14T15:44:41;4.10;1.00
10336;DHT22;5213;53.548;9.930;2023-12-14T15:47:07;4.00;1.00
10336;DHT22;5213;53.548;9.930;2023-12-14T15:49:32;3.80;1.00
10336;DHT22;5213;53.548;9.930;2023-12-14T15:51:58;3.80;1.00
10336;DHT22;5213;53.548;9.930;2023-12-14T15:54:24;3.60;1.00
10336;DHT22;5213;53.548;9.930;2023-12-14T15:56:49;3.60;1.00
10336;DHT22;5213;53.548;9.930;2023-12-14T15:59:15;4.10;1.00
10336;DHT22;5213;53.548;9.930;2023-12-14T16:01:40;3.80;1.00
10336;DHT22;5213;53.548;9.930;2023-12-14T16:04:07;3.30;1.00
10336;DHT22;5213;53.548;9.930;2023-12-14T16:06:34;3.20;1.00
10336;DHT22;5213;53.548;9.930;2023-12-14T16:08:59;3.30;1.00
10336;DHT22;5213;53.548;9.930;2023-12-14T16:11:26;3.30;1.00
10336;DHT22;5213;53.548;9.930;2023-12-14T16:13:51;3.30;1.00
10336;DHT22;5213;53.548;9.930;2023-12-14T16:16:18;3.30;1.00